Overview Statistics Trail Chart Weather Telemetry Raw packets
 

This is the latest recevied weather packets stored in our database for station/object KC9DRE. If no packets are shown the sender has not sent any weather packets the latest 10 day(s).

<< 40 41 42 43 44 45 46 >>
Time Temp. Humidity Pressure Rain* Wind** Luminosity Snow
1777656140 16.11° C 43% 1015.6 hPa 0 mm - 486 W/m² -
1777655837 16.11° C 44% 1015.6 hPa 0 mm - 969 W/m² -
1777655534 15.56° C 52% 1015.6 hPa 0 mm - 895 W/m² -
1777655231 15° C 49% 1015.9 hPa 0 mm - 891 W/m² -
1777654927 14.44° C 50% 1016.1 hPa 0 mm - 340 W/m² -
1777654625 15° C 47% 1016.1 hPa 0 mm - 319 W/m² -
1777654322 15.56° C 50% 1015.9 hPa 0 mm - 443 W/m² -
1777654020 14.44° C 52% 1015.7 hPa 0 mm - 758 W/m² -
1777653717 13.89° C 55% 1015.7 hPa 0 mm - 893 W/m² -
1777653413 15° C 50% 1015.5 hPa 0 mm - 229 W/m² -
1777653110 15.56° C 50% 1015.5 hPa 0 mm - 199 W/m² -
1777652806 16.11° C 52% 1015.4 hPa 0 mm - 233 W/m² -
1777652503 15.56° C 54% 1015.3 hPa 0 mm - 909 W/m² -
1777652200 15° C 54% 1015.4 hPa 0 mm - 840 W/m² -
1777651897 13.89° C 55% 1015.6 hPa 0 mm - 909 W/m² -
1777651594 14.44° C 53% 1015.4 hPa 0 mm - 171 W/m² -
1777651291 15° C 50% 1015.2 hPa 0 mm - 159 W/m² -
1777650987 16.11° C 49% 1015.1 hPa 0 mm - 358 W/m² -
1777650685 15.56° C 51% 1015.2 hPa 0 mm - 879 W/m² -
1777650382 13.89° C 57% 1015.2 hPa 0 mm - 790 W/m² -
1777650079 12.78° C 62% 1015.1 hPa 0 mm - 780 W/m² -
1777649782 12.78° C 59% 1015.1 hPa 0 mm - 190 W/m² -
1777649473 12.78° C 57% 1014.9 hPa 0 mm - 156 W/m² -
1777649169 13.89° C 54% 1014.9 hPa 0 mm - 119 W/m² -
1777648867 14.44° C 58% 1014.9 hPa 0 mm - 316 W/m² -

* Rain latest hour (hover to see other rain measurements)
** Current wind speed in m/s (hover to see current wind gust speed)